createdAt,value
2017-08-22T00:00:38.560Z,83.70
2017-08-22T00:03:09.273Z,83.40
2017-08-22T00:05:39.890Z,83.30
2017-08-22T00:08:10.442Z,83.30
2017-08-22T00:10:41.059Z,83.30
2017-08-22T00:13:11.370Z,83.20
2017-08-22T00:15:41.917Z,82.80
2017-08-22T00:18:12.391Z,82.50
2017-08-22T00:20:42.744Z,81.80
2017-08-22T00:23:13.251Z,81.50
2017-08-22T00:25:43.832Z,81.60
2017-08-22T00:28:14.430Z,80.80
2017-08-22T00:30:45.036Z,80.50
2017-08-22T00:33:15.631Z,80.60
2017-08-22T00:35:46.257Z,81.00
2017-08-22T00:38:16.899Z,81.10
2017-08-22T00:40:47.380Z,81.30
2017-08-22T00:43:17.754Z,81.00
2017-08-22T00:45:48.278Z,80.00
2017-08-22T00:48:18.813Z,80.20
2017-08-22T00:50:49.324Z,80.60
2017-08-22T00:53:19.867Z,79.30
2017-08-22T00:55:50.713Z,78.50
2017-08-22T00:58:21.210Z,77.00
2017-08-22T01:00:51.863Z,74.70
2017-08-22T01:03:22.367Z,73.60
2017-08-22T01:05:52.943Z,74.30
2017-08-22T01:08:23.589Z,72.40
2017-08-22T01:10:54.108Z,71.50
2017-08-22T01:13:24.591Z,69.40
2017-08-22T01:15:55.070Z,67.30
2017-08-22T01:18:25.457Z,67.30
2017-08-22T01:20:56.004Z,65.50
2017-08-22T01:23:26.587Z,65.50
2017-08-22T01:25:57.150Z,64.60
2017-08-22T01:28:27.674Z,65.30
2017-08-22T01:30:58.218Z,65.30
2017-08-22T01:33:28.843Z,64.80
2017-08-22T01:35:59.514Z,64.90
2017-08-22T01:38:30.047Z,62.90
2017-08-22T01:41:00.506Z,62.90
2017-08-22T01:43:31.028Z,61.00
2017-08-22T01:46:01.517Z,62.70
2017-08-22T01:48:32.084Z,62.10
2017-08-22T01:51:02.555Z,62.80
2017-08-22T01:53:33.219Z,64.80
2017-08-22T01:56:04.079Z,63.70
2017-08-22T01:58:34.616Z,63.80
2017-08-22T02:01:05.074Z,63.10
2017-08-22T02:03:35.544Z,64.20
2017-08-22T02:06:06.097Z,65.20
2017-08-22T02:08:36.533Z,64.90
2017-08-22T02:11:06.940Z,65.40
2017-08-22T02:13:37.483Z,65.00
2017-08-22T02:16:07.994Z,64.80
2017-08-22T02:18:38.281Z,65.30
2017-08-22T02:21:08.855Z,66.70
2017-08-22T02:23:39.498Z,66.60
2017-08-22T02:26:09.817Z,65.50
2017-08-22T02:28:40.256Z,65.00
2017-08-22T02:31:10.796Z,63.70
2017-08-22T02:33:41.138Z,62.80
2017-08-22T02:36:11.608Z,62.90
2017-08-22T02:38:42.097Z,62.70
2017-08-22T02:41:12.702Z,61.50
2017-08-22T02:43:43.135Z,61.50
2017-08-22T02:46:13.646Z,61.20
2017-08-22T02:48:44.671Z,59.80
2017-08-22T02:51:15.162Z,59.80
2017-08-22T02:53:45.755Z,59.90
2017-08-22T02:56:16.525Z,58.60
2017-08-22T02:58:46.941Z,58.40
2017-08-22T03:01:17.519Z,58.10
2017-08-22T03:03:48.020Z,58.40
2017-08-22T03:06:18.527Z,58.50
2017-08-22T03:08:48.837Z,59.30
2017-08-22T03:11:19.297Z,59.70
2017-08-22T03:13:49.772Z,59.50
2017-08-22T03:16:20.143Z,60.10
2017-08-22T03:18:50.689Z,60.60
2017-08-22T03:21:21.240Z,61.60
2017-08-22T03:23:51.832Z,61.10
2017-08-22T03:26:22.541Z,61.00
2017-08-22T03:28:53.200Z,61.60
2017-08-22T03:31:23.832Z,62.20
2017-08-22T03:33:54.470Z,62.90
2017-08-22T03:36:25.004Z,62.80
2017-08-22T03:38:55.450Z,62.50
2017-08-22T03:41:25.872Z,63.00
2017-08-22T03:43:56.386Z,62.20
2017-08-22T03:46:26.790Z,62.20
2017-08-22T03:48:57.276Z,61.80
2017-08-22T03:51:27.855Z,60.40
2017-08-22T03:53:58.446Z,61.10
2017-08-22T03:56:29.294Z,60.50
2017-08-22T03:58:59.812Z,60.80
2017-08-22T04:01:30.387Z,60.70
2017-08-22T04:04:01.052Z,60.50
2017-08-22T04:06:31.664Z,60.10
2017-08-22T04:09:02.305Z,59.80
2017-08-22T04:11:32.837Z,60.20
2017-08-22T04:14:03.232Z,59.60
2017-08-22T04:16:33.908Z,59.10
2017-08-22T04:19:04.439Z,58.70
2017-08-22T04:21:34.991Z,58.50
2017-08-22T04:24:05.250Z,58.20
2017-08-22T04:26:35.795Z,58.80
2017-08-22T04:29:06.434Z,59.60
2017-08-22T04:31:36.852Z,59.00
2017-08-22T04:34:07.378Z,58.70
2017-08-22T04:36:38.037Z,58.70
2017-08-22T04:39:08.622Z,59.10
2017-08-22T04:41:39.108Z,58.40
2017-08-22T04:44:09.690Z,58.60
2017-08-22T04:46:40.168Z,58.00
2017-08-22T04:49:11.423Z,58.50
2017-08-22T04:51:41.851Z,58.20
2017-08-22T04:54:12.173Z,58.20
2017-08-22T04:56:43.486Z,58.30
2017-08-22T04:59:13.899Z,59.10
2017-08-22T05:01:44.478Z,58.60
2017-08-22T05:04:15.122Z,58.30
2017-08-22T05:06:45.906Z,58.80
2017-08-22T05:09:16.584Z,58.20
2017-08-22T05:11:47.112Z,58.10
2017-08-22T05:14:17.557Z,58.00
2017-08-22T05:16:48.092Z,57.90
2017-08-22T05:19:18.468Z,57.60
2017-08-22T05:21:49.062Z,57.70
2017-08-22T05:24:19.619Z,58.20
2017-08-22T05:26:49.960Z,58.80
2017-08-22T05:29:20.559Z,59.10
2017-08-22T05:31:51.158Z,59.10
2017-08-22T05:34:21.748Z,59.10
2017-08-22T05:36:52.182Z,58.80
2017-08-22T05:39:22.855Z,59.20
2017-08-22T05:41:53.195Z,58.70
2017-08-22T05:44:23.720Z,58.30
2017-08-22T05:46:54.109Z,58.80
2017-08-22T05:49:24.718Z,58.90
2017-08-22T05:51:55.254Z,58.20
2017-08-22T05:54:25.639Z,57.90
2017-08-22T05:56:56.378Z,57.30
2017-08-22T05:59:26.992Z,57.20
2017-08-22T06:01:57.524Z,56.70
2017-08-22T06:04:28.058Z,56.20
2017-08-22T06:06:58.565Z,56.00
2017-08-22T06:09:29.066Z,56.40
2017-08-22T06:11:59.465Z,57.00
2017-08-22T06:14:29.964Z,57.20
2017-08-22T06:17:00.390Z,57.20
2017-08-22T06:19:31.047Z,56.70
2017-08-22T06:22:05.459Z,56.40
2017-08-22T06:24:37.933Z,56.60
2017-08-22T06:27:08.474Z,55.20
2017-08-22T06:29:38.926Z,56.60
2017-08-22T06:32:14.520Z,55.50
2017-08-22T06:34:45.075Z,54.60
2017-08-22T06:37:15.488Z,53.50
2017-08-22T06:39:46.008Z,53.40
2017-08-22T06:42:16.572Z,51.70
2017-08-22T06:44:47.155Z,52.90
2017-08-22T06:47:17.738Z,52.10
2017-08-22T06:49:48.299Z,52.40
2017-08-22T06:52:18.756Z,53.60
2017-08-22T06:54:49.175Z,52.30
2017-08-22T06:57:20.041Z,52.90
2017-08-22T06:59:50.643Z,53.00
2017-08-22T07:02:21.244Z,52.40
2017-08-22T07:04:51.832Z,53.30
2017-08-22T07:07:22.361Z,53.90
2017-08-22T07:09:52.841Z,55.20
2017-08-22T07:12:23.395Z,55.40
2017-08-22T07:14:53.949Z,54.20
2017-08-22T07:17:24.655Z,55.10
2017-08-22T07:19:55.063Z,56.10
2017-08-22T07:22:25.667Z,55.50
2017-08-22T07:24:56.172Z,56.60
2017-08-22T07:27:26.602Z,56.80
2017-08-22T07:29:57.003Z,56.70
2017-08-22T07:32:27.440Z,57.10
2017-08-22T07:34:57.903Z,55.90
2017-08-22T07:37:28.311Z,56.00
2017-08-22T07:39:58.676Z,56.60
2017-08-22T07:42:29.222Z,57.10
2017-08-22T07:45:00.597Z,56.40
2017-08-22T07:47:31.025Z,56.90
2017-08-22T07:50:01.484Z,57.40
2017-08-22T07:52:31.918Z,56.50
2017-08-22T07:55:02.469Z,57.00
2017-08-22T07:57:33.608Z,57.10
2017-08-22T08:00:04.136Z,57.10
2017-08-22T08:02:34.889Z,57.30
2017-08-22T08:05:05.267Z,57.50
2017-08-22T08:07:35.860Z,57.50
2017-08-22T08:10:06.359Z,56.40
2017-08-22T08:12:37.685Z,56.90
2017-08-22T08:15:08.244Z,56.80
2017-08-22T08:17:38.790Z,57.30
2017-08-22T08:20:09.330Z,57.60
2017-08-22T08:22:39.849Z,58.10
2017-08-22T08:25:10.386Z,58.10
2017-08-22T08:27:40.998Z,58.10
2017-08-22T08:30:11.627Z,57.90
2017-08-22T08:32:42.267Z,57.80
2017-08-22T08:35:12.847Z,58.40
2017-08-22T08:37:43.410Z,58.60
2017-08-22T08:40:13.792Z,58.50
2017-08-22T08:42:44.404Z,59.70
2017-08-22T08:45:14.880Z,59.30
2017-08-22T08:47:45.306Z,59.00
2017-08-22T08:50:15.660Z,59.20
2017-08-22T08:52:46.371Z,59.00
2017-08-22T08:55:16.807Z,59.70
2017-08-22T08:57:47.470Z,59.20
2017-08-22T09:00:18.075Z,59.60
2017-08-22T09:02:48.328Z,59.10
2017-08-22T09:05:18.962Z,59.50
2017-08-22T09:07:49.394Z,59.20
2017-08-22T09:10:19.998Z,59.10
2017-08-22T09:12:50.268Z,58.70
2017-08-22T09:15:20.797Z,59.00
2017-08-22T09:17:51.222Z,59.60
2017-08-22T09:20:21.655Z,59.40
2017-08-22T09:22:52.058Z,59.40
2017-08-22T09:25:22.646Z,59.50
2017-08-22T09:27:53.236Z,60.10
2017-08-22T09:30:23.807Z,60.10
2017-08-22T09:32:54.253Z,60.00
2017-08-22T09:35:24.563Z,60.80
2017-08-22T09:37:54.912Z,60.80
2017-08-22T09:40:25.249Z,60.90
2017-08-22T09:42:55.686Z,61.60
2017-08-22T09:45:26.207Z,61.30
2017-08-22T09:47:56.614Z,62.40
2017-08-22T09:50:27.211Z,62.10
2017-08-22T09:52:57.982Z,61.90
2017-08-22T09:55:28.335Z,61.30
2017-08-22T09:58:46.204Z,61.70
2017-08-22T10:01:16.846Z,61.40
2017-08-22T10:03:47.460Z,61.20
2017-08-22T10:06:18.034Z,61.70
2017-08-22T10:08:48.642Z,61.80
2017-08-22T10:11:19.274Z,61.60
2017-08-22T10:13:49.844Z,61.20
2017-08-22T10:16:20.450Z,62.30
2017-08-22T10:18:50.929Z,62.30
2017-08-22T10:21:21.387Z,63.00
2017-08-22T10:23:51.811Z,63.30
2017-08-22T10:26:22.692Z,63.50
2017-08-22T10:28:53.125Z,62.30
2017-08-22T10:31:23.571Z,62.60
2017-08-22T10:33:54.216Z,63.20
2017-08-22T10:36:24.624Z,63.50
2017-08-22T10:38:55.109Z,63.60
2017-08-22T10:41:25.728Z,63.50
2017-08-22T10:43:56.179Z,63.90
2017-08-22T10:46:26.587Z,63.60
2017-08-22T10:48:57.205Z,63.70
2017-08-22T10:51:27.411Z,64.10
2017-08-22T10:53:57.815Z,67.40
2017-08-22T10:56:28.299Z,67.70
2017-08-22T10:59:00.684Z,68.30
2017-08-22T11:01:31.144Z,68.30
2017-08-22T11:04:01.634Z,69.00
2017-08-22T11:06:32.921Z,69.90
2017-08-22T11:09:03.453Z,70.60
2017-08-22T11:11:33.797Z,70.60
2017-08-22T11:14:04.335Z,71.00
2017-08-22T11:16:34.685Z,71.50
2017-08-22T11:19:05.041Z,71.50
2017-08-22T11:21:35.499Z,71.80
2017-08-22T11:24:06.003Z,71.90
2017-08-22T11:26:36.420Z,72.00
2017-08-22T11:29:06.920Z,72.10
2017-08-22T11:31:37.397Z,72.30
2017-08-22T11:34:07.957Z,72.40
2017-08-22T11:36:38.554Z,72.40
2017-08-22T11:39:11.017Z,72.30
2017-08-22T11:41:41.665Z,72.30
2017-08-22T11:44:12.256Z,72.40
2017-08-22T11:46:43.434Z,72.10
2017-08-22T11:49:17.877Z,72.20
2017-08-22T11:51:48.491Z,72.30
2017-08-22T11:54:19.175Z,71.80
2017-08-22T11:56:51.618Z,68.70
2017-08-22T11:59:24.334Z,68.90
2017-08-22T12:01:55.672Z,69.20
2017-08-22T12:04:26.589Z,70.70
2017-08-22T12:06:58.281Z,72.10
2017-08-22T12:09:28.719Z,72.80
2017-08-22T12:11:59.112Z,73.70
2017-08-22T12:14:29.799Z,73.50
2017-08-22T12:17:00.357Z,73.10
2017-08-22T12:19:32.287Z,73.00
2017-08-22T12:22:05.295Z,72.90
2017-08-22T12:24:35.969Z,72.90
2017-08-22T12:27:06.646Z,71.90
2017-08-22T12:29:37.485Z,71.90
2017-08-22T12:32:10.327Z,72.70
2017-08-22T12:34:43.974Z,73.30
2017-08-22T12:37:14.972Z,72.20
2017-08-22T12:39:46.060Z,71.90
2017-08-22T12:42:17.401Z,70.10
2017-08-22T12:44:47.870Z,69.40
2017-08-22T12:47:18.370Z,69.50
2017-08-22T12:49:51.558Z,68.70
2017-08-22T12:52:22.430Z,69.00
2017-08-22T12:54:53.666Z,69.90
2017-08-22T12:57:24.399Z,70.20
2017-08-22T12:59:55.032Z,70.00
2017-08-22T13:02:26.341Z,70.60
2017-08-22T13:04:56.831Z,70.50
2017-08-22T13:07:27.283Z,70.80
2017-08-22T13:09:57.778Z,70.70
2017-08-22T13:12:28.856Z,70.70
2017-08-22T13:15:00.815Z,70.70
2017-08-22T13:17:32.608Z,71.10
2017-08-22T13:20:06.517Z,72.00
2017-08-22T13:22:38.051Z,72.60
2017-08-22T13:25:13.633Z,72.80
2017-08-22T13:27:45.453Z,71.70
2017-08-22T13:30:19.302Z,71.40
2017-08-22T13:32:54.640Z,71.10
2017-08-22T13:35:25.808Z,71.20
2017-08-22T13:37:57.889Z,71.40
2017-08-22T13:40:31.469Z,71.40
2017-08-22T13:43:03.623Z,71.30
2017-08-22T13:45:36.342Z,71.50
2017-08-22T13:48:07.311Z,71.70
2017-08-22T13:50:42.608Z,70.50
2017-08-22T13:53:17.243Z,70.50
2017-08-22T13:55:54.524Z,70.80
2017-08-22T13:58:28.319Z,72.20
2017-08-22T14:01:00.779Z,72.60
2017-08-22T14:03:31.363Z,72.60
2017-08-22T14:06:03.488Z,72.80
2017-08-22T14:08:37.559Z,72.60
2017-08-22T14:11:14.491Z,72.80
2017-08-22T14:13:48.320Z,72.30
2017-08-22T14:16:22.681Z,72.70
2017-08-22T14:18:56.706Z,73.80
2017-08-22T14:21:29.763Z,73.70
2017-08-22T14:24:04.996Z,73.80
2017-08-22T14:26:37.644Z,73.10
2017-08-22T14:29:13.465Z,73.30
2017-08-22T14:31:45.692Z,73.80
2017-08-22T14:34:21.351Z,74.00
2017-08-22T14:36:55.123Z,74.20
2017-08-22T14:39:26.683Z,74.40
2017-08-22T14:42:03.723Z,75.50
2017-08-22T14:44:34.979Z,77.00
2017-08-22T14:47:05.410Z,75.70
2017-08-22T14:49:39.020Z,72.50
2017-08-22T14:52:10.199Z,71.80
2017-08-22T14:54:43.064Z,71.60
2017-08-22T14:57:14.201Z,71.60
2017-08-22T14:59:47.303Z,72.50
2017-08-22T15:02:18.772Z,73.20
2017-08-22T15:04:50.175Z,74.00
2017-08-22T15:07:21.125Z,74.50
2017-08-22T15:09:51.459Z,73.70
2017-08-22T15:12:25.228Z,73.10
2017-08-22T15:14:56.727Z,73.00
2017-08-22T15:17:27.215Z,73.50
2017-08-22T15:19:57.715Z,74.10
2017-08-22T15:22:28.072Z,74.30
2017-08-22T15:24:58.575Z,75.20
2017-08-22T15:27:28.977Z,75.20
2017-08-22T15:29:59.437Z,74.80
2017-08-22T15:32:29.996Z,73.50
2017-08-22T15:35:00.301Z,72.20
2017-08-22T15:37:30.597Z,71.60
2017-08-22T15:40:00.891Z,71.50
2017-08-22T15:42:31.460Z,71.30
2017-08-22T15:45:01.919Z,71.30
2017-08-22T15:47:32.460Z,72.00
2017-08-22T15:50:02.994Z,72.70
2017-08-22T15:52:33.308Z,73.10
2017-08-22T15:55:03.704Z,72.80
2017-08-22T15:57:34.974Z,72.80
2017-08-22T16:00:06.336Z,71.80
2017-08-22T16:02:37.379Z,71.80
2017-08-22T16:05:08.515Z,71.10
2017-08-22T16:07:38.992Z,71.10
2017-08-22T16:10:09.389Z,71.70
2017-08-22T16:12:39.809Z,71.70
2017-08-22T16:15:10.428Z,71.20
2017-08-22T16:17:40.867Z,71.70
2017-08-22T16:20:11.176Z,72.70
2017-08-22T16:22:41.716Z,72.80
2017-08-22T16:25:12.386Z,72.60
2017-08-22T16:27:42.782Z,71.70
2017-08-22T16:30:13.960Z,70.70
2017-08-22T16:32:44.545Z,70.60
2017-08-22T16:35:15.328Z,70.60
2017-08-22T16:37:45.998Z,70.80
2017-08-22T16:40:16.483Z,70.90
2017-08-22T16:42:46.826Z,71.00
2017-08-22T16:45:17.755Z,71.60
2017-08-22T16:47:48.185Z,72.70
2017-08-22T16:50:18.748Z,73.40
2017-08-22T16:52:49.236Z,74.50
2017-08-22T16:55:19.831Z,75.40
2017-08-22T16:57:50.270Z,76.00
2017-08-22T17:00:20.804Z,76.30
2017-08-22T17:02:52.370Z,75.10
2017-08-22T17:05:22.770Z,74.60
2017-08-22T17:07:53.839Z,72.30
2017-08-22T17:10:24.272Z,72.30
2017-08-22T17:12:54.606Z,71.80
2017-08-22T17:15:25.116Z,71.20
2017-08-22T17:17:55.352Z,71.00
2017-08-22T17:20:25.938Z,70.80
2017-08-22T17:22:56.366Z,69.40
2017-08-22T17:25:26.640Z,69.70
2017-08-22T17:27:56.961Z,69.70
2017-08-22T17:30:27.503Z,70.00
2017-08-22T17:32:57.925Z,70.20
2017-08-22T17:35:28.502Z,70.40
2017-08-22T17:37:58.956Z,70.50
2017-08-22T17:40:29.573Z,70.20
2017-08-22T17:43:00.061Z,69.80
2017-08-22T17:45:30.669Z,70.50
2017-08-22T17:48:01.321Z,71.00
2017-08-22T17:50:31.948Z,71.30
2017-08-22T17:53:02.387Z,71.80
2017-08-22T17:55:32.677Z,71.60
2017-08-22T17:58:03.306Z,71.30
2017-08-22T18:00:34.509Z,70.80
2017-08-22T18:03:04.925Z,70.80
2017-08-22T18:05:35.494Z,70.90
2017-08-22T18:08:05.976Z,71.00
2017-08-22T18:10:36.486Z,70.50
2017-08-22T18:13:07.014Z,71.30
2017-08-22T18:15:37.554Z,71.10
2017-08-22T18:18:10.337Z,70.70
2017-08-22T18:20:40.784Z,71.20
2017-08-22T18:23:11.326Z,71.50
2017-08-22T18:25:41.735Z,71.60
2017-08-22T18:28:12.138Z,71.50
2017-08-22T18:30:42.524Z,71.90
2017-08-22T18:33:12.926Z,72.60
2017-08-22T18:35:43.241Z,74.80
2017-08-22T18:38:13.683Z,75.10
2017-08-22T18:40:44.171Z,76.10
2017-08-22T18:43:14.613Z,77.10
2017-08-22T18:45:44.892Z,77.20
2017-08-22T18:48:15.442Z,76.80
2017-08-22T18:50:46.038Z,76.40
2017-08-22T18:53:16.648Z,76.70
2017-08-22T18:55:47.297Z,76.90
2017-08-22T18:58:17.916Z,77.70
2017-08-22T19:00:48.302Z,78.00
2017-08-22T19:03:19.139Z,78.20
2017-08-22T19:05:49.492Z,78.50
2017-08-22T19:08:19.968Z,79.10
2017-08-22T19:10:51.106Z,79.30
2017-08-22T19:13:21.383Z,79.40
2017-08-22T19:15:52.657Z,79.20
2017-08-22T19:18:23.087Z,79.10
2017-08-22T19:20:53.500Z,78.50
2017-08-22T19:23:24.858Z,76.80
2017-08-22T19:25:55.317Z,76.80
2017-08-22T19:28:25.900Z,78.30
2017-08-22T19:30:56.560Z,79.00
2017-08-22T19:33:27.015Z,79.10
2017-08-22T19:35:57.438Z,79.20
2017-08-22T19:38:28.074Z,79.30
2017-08-22T19:40:58.272Z,79.30
2017-08-22T19:43:28.794Z,79.40
2017-08-22T19:45:59.270Z,79.30
2017-08-22T19:48:29.878Z,79.50
2017-08-22T19:51:00.499Z,79.60
2017-08-22T19:53:31.104Z,79.60
2017-08-22T19:56:01.310Z,78.70
2017-08-22T19:58:31.751Z,78.60
2017-08-22T20:01:02.132Z,78.80
2017-08-22T20:03:32.915Z,78.60
2017-08-22T20:06:03.334Z,77.60
2017-08-22T20:08:33.763Z,77.40
2017-08-22T20:11:04.394Z,77.00
2017-08-22T20:13:34.827Z,76.20
2017-08-22T20:16:05.350Z,76.50
2017-08-22T20:18:35.735Z,76.30
2017-08-22T20:21:06.203Z,76.10
2017-08-22T20:23:36.867Z,75.90
2017-08-22T20:26:08.042Z,76.00
2017-08-22T20:28:38.468Z,75.90
2017-08-22T20:31:09.070Z,75.60
2017-08-22T20:33:39.603Z,75.70
2017-08-22T20:36:10.130Z,75.80
2017-08-22T20:38:41.439Z,75.80
2017-08-22T20:41:11.871Z,75.80
2017-08-22T20:43:42.055Z,75.80
2017-08-22T20:46:12.598Z,77.00
2017-08-22T20:48:43.234Z,77.00
2017-08-22T20:51:13.870Z,77.50
2017-08-22T20:53:44.202Z,76.80
2017-08-22T20:56:14.681Z,76.90
2017-08-22T20:58:45.251Z,77.00
2017-08-22T21:01:15.730Z,77.20
2017-08-22T21:03:46.176Z,77.10
2017-08-22T21:06:17.651Z,78.10
2017-08-22T21:08:48.144Z,77.60
2017-08-22T21:11:18.289Z,77.20
2017-08-22T21:13:48.717Z,75.80
2017-08-22T21:16:19.135Z,76.00
2017-08-22T21:18:49.490Z,76.30
2017-08-22T21:21:19.850Z,76.90
2017-08-22T21:23:50.239Z,77.80
2017-08-22T21:26:21.190Z,78.00
2017-08-22T21:28:51.719Z,78.20
2017-08-22T21:31:22.132Z,78.30
2017-08-22T21:33:52.600Z,78.10
2017-08-22T21:36:22.991Z,78.00
2017-08-22T21:38:53.389Z,77.70
2017-08-22T21:41:23.757Z,77.80
2017-08-22T21:43:53.888Z,78.20
2017-08-22T21:46:24.200Z,78.60
2017-08-22T21:48:54.699Z,79.00
2017-08-22T21:51:25.008Z,79.30
2017-08-22T21:56:29.971Z,78.70
2017-08-22T21:59:00.534Z,79.30
2017-08-22T22:01:32.051Z,80.60
2017-08-22T22:04:02.933Z,80.00
2017-08-22T22:06:33.278Z,80.00
2017-08-22T22:09:03.643Z,80.20
2017-08-22T22:11:33.966Z,80.30
2017-08-22T22:14:04.416Z,80.50
2017-08-22T22:16:35.018Z,80.60
2017-08-22T22:19:05.519Z,80.70
2017-08-22T22:21:35.931Z,80.60
2017-08-22T22:24:07.140Z,80.50
2017-08-22T22:26:37.499Z,80.30
2017-08-22T22:29:07.962Z,80.60
2017-08-22T22:31:38.458Z,81.90
2017-08-22T22:34:09.634Z,82.70
2017-08-22T22:36:40.078Z,82.70
2017-08-22T22:39:10.549Z,82.30
2017-08-22T22:41:40.853Z,82.40
2017-08-22T22:44:11.323Z,83.10
2017-08-22T22:46:42.628Z,82.10
2017-08-22T22:49:13.171Z,82.00
2017-08-22T22:51:43.762Z,81.10
2017-08-22T22:54:14.383Z,81.30
2017-08-22T22:56:44.853Z,81.70
2017-08-22T22:59:15.338Z,82.10
2017-08-22T23:01:45.775Z,82.20
2017-08-22T23:04:16.630Z,82.40
2017-08-22T23:06:47.100Z,82.60
2017-08-22T23:09:17.548Z,82.10
2017-08-22T23:11:48.108Z,82.20
2017-08-22T23:14:18.521Z,82.80
2017-08-22T23:16:48.854Z,83.20
2017-08-22T23:19:19.317Z,83.10
2017-08-22T23:21:49.916Z,83.10
2017-08-22T23:24:20.349Z,83.80
2017-08-22T23:26:50.840Z,83.90
2017-08-22T23:29:21.296Z,83.70
2017-08-22T23:31:51.876Z,83.60
2017-08-22T23:34:22.324Z,83.30
2017-08-22T23:36:52.909Z,83.00
2017-08-22T23:39:23.490Z,83.10
2017-08-22T23:41:54.163Z,83.30
2017-08-22T23:44:24.590Z,83.40
2017-08-22T23:46:55.008Z,82.50
2017-08-22T23:49:25.551Z,82.70
2017-08-22T23:51:56.017Z,82.10
2017-08-22T23:54:26.391Z,81.40
2017-08-22T23:56:57.002Z,81.20
2017-08-22T23:59:27.528Z,81.00
